Terminal Aerodrome Forecast
Issued by NWS Charleston, WV

Home | Current Version | Previous Version | Text Only | Print | Product List | Glossary On
Versions: 1 2 3 4 5 6 7 8 9 10 11 12 13 14 15 16 17 18 19 20
000
FTUS41 KRLX 241100
TAFBKW
TAF
KBKW 241136Z 2412/2512 33004KT 5SM BR OVC008
      TEMPO 2412/2415 2SM -SHRA BR BKN004
     FM241700 33007KT 4SM -RADZ BR OVC008
     FM242100 33007KT 6SM BR OVC015
     FM250000 VRB03KT 6SM BR BKN020
     FM250500 00000KT 3SM BR BKN010=

USA.gov is the U.S. government's official web portal to all federal, state and local government web resources and services.